Terminal Aerodrome Forecast
Issued by NWS

Home | Current Version | Previous Version | Text Only | Print | Product List | Glossary On
Versions: 1 2 3 4 5 6 7 8 9 10 11 12 13 14 15
728
FTUS41 KBTV 112333
TAFMPV
TAF
KMPV 112333Z 1200/1224 00000KT P6SM BKN110
     FM120600 13005KT 6SM BR VCSH OVC050
     FM120900 14007KT 2SM -SN BR OVC028
     FM121300 14009G18KT 1SM -SN BR OVC015
     FM122000 15006KT 3/4SM -SN BR OVC008
     FM122200 00000KT 2SM -SN BR OVC008=

USA.gov is the U.S. government's official web portal to all federal, state and local government web resources and services.